Time;durP1;ratioP1;P1;durP2;ratioP2;P2;SDS_P1;SDS_P2;PMS_P1;PMS_P2;Temp;Humidity;BMP_temperature;BMP_pressure;BME280_temperature;BME280_humidity;BME280_pressure;Samples;Min_cycle;Max_cycle;Signal;HPM_P1;HPM_P2
2023/07/11 00:00:03;;;;;;;4.68;2.88;;;;;;;20.87;61.80;99166.16;5034911;28;20044;-83
2023/07/11 00:02:29;;;;;;;3.70;2.63;;;;;;;20.87;61.86;99173.50;5035870;28;20029;-82
2023/07/11 00:04:54;;;;;;;3.10;2.40;;;;;;;20.86;61.99;99166.47;5035109;28;20097;-83
2023/07/11 00:07:20;;;;;;;3.30;2.47;;;;;;;20.79;61.79;99147.88;5018001;28;20030;-83
2023/07/11 00:09:47;;;;;;;4.53;2.55;;;;;;;20.95;61.71;99169.25;5035856;28;20381;-82
2023/07/11 00:12:13;;;;;;;5.28;2.90;;;;;;;20.89;61.78;99165.84;5034615;28;20044;-83
2023/07/11 00:14:38;;;;;;;3.88;2.88;;;;;;;20.81;61.63;99153.84;5035451;28;20052;-83
2023/07/11 00:17:05;;;;;;;8.18;2.95;;;;;;;20.75;61.87;99165.13;5034567;28;20087;-82
2023/07/11 00:19:44;;;;;;;4.35;2.78;;;;;;;20.68;61.71;99138.41;5018076;28;20029;-83
2023/07/11 00:22:10;;;;;;;3.47;2.55;;;;;;;20.80;61.44;99152.22;5035362;28;20563;-83
2023/07/11 00:24:35;;;;;;;6.43;2.85;;;;;;;20.66;61.96;99148.75;5017799;28;20076;-82
2023/07/11 00:27:00;;;;;;;4.05;2.40;;;;;;;20.68;61.88;99153.88;5017681;28;20026;-82
2023/07/11 00:29:26;;;;;;;3.30;2.70;;;;;;;20.62;62.04;99161.31;5035388;28;20029;-82
2023/07/11 00:31:51;;;;;;;2.83;2.50;;;;;;;20.78;61.65;99153.63;5034214;28;20117;-82
2023/07/11 00:34:17;;;;;;;8.40;3.20;;;;;;;20.53;62.33;99136.03;5034342;28;20155;-83
2023/07/11 00:36:42;;;;;;;8.13;3.38;;;;;;;20.36;62.49;99143.22;5000722;28;20041;-82
2023/07/11 00:39:08;;;;;;;5.68;3.53;;;;;;;19.70;64.79;99149.19;5016722;28;20033;-82
2023/07/11 00:41:33;;;;;;;3.60;2.65;;;;;;;19.89;64.13;99152.59;5033051;28;20103;-82
2023/07/11 00:43:58;;;;;;;2.38;2.17;;;;;;;20.30;62.93;99149.84;5033330;28;20033;-82
2023/07/11 00:46:24;;;;;;;3.55;2.88;;;;;;;20.52;62.05;99144.47;5000118;28;20164;-82
2023/07/11 00:48:53;;;;;;;4.30;2.53;;;;;;;20.66;61.66;99134.41;5015508;28;20025;-82
2023/07/11 00:51:41;;;;;;;4.05;2.80;;;;;;;20.51;61.77;99130.13;5015789;28;20029;-83
2023/07/11 00:54:10;;;;;;;9.57;3.33;;;;;;;20.48;62.07;99141.59;5034097;28;20181;-82
2023/07/11 00:56:40;;;;;;;6.80;3.00;;;;;;;20.56;62.05;99143.56;5033533;28;20033;-82
2023/07/11 00:59:07;;;;;;;3.90;2.65;;;;;;;20.41;62.02;99118.69;5032103;28;20493;-82
2023/07/11 01:01:33;;;;;;;3.63;2.47;;;;;;;20.30;62.51;99123.56;5032600;28;20036;-82
2023/07/11 01:03:58;;;;;;;6.47;2.67;;;;;;;19.48;65.66;99128.19;5033444;28;20030;-82
2023/07/11 01:06:27;;;;;;;4.43;3.25;;;;;;;19.47;65.66;99137.41;5032216;28;20087;-82
2023/07/11 01:08:55;;;;;;;3.92;2.53;;;;;;;20.10;63.40;99124.75;5031610;28;20432;-83
2023/07/11 01:11:22;;;;;;;3.50;2.80;;;;;;;20.18;62.99;99115.13;5032478;28;20481;-82
2023/07/11 01:13:49;;;;;;;5.88;2.92;;;;;;;20.36;62.30;99119.63;5016068;28;20036;-82
2023/07/11 01:16:14;;;;;;;2.40;2.10;;;;;;;20.29;62.39;99113.81;5015372;28;20025;-82
2023/07/11 01:18:40;;;;;;;4.22;2.70;;;;;;;20.31;62.37;99117.03;5015365;28;20481;-82
2023/07/11 01:21:05;;;;;;;3.85;2.88;;;;;;;20.35;61.86;99107.19;5032045;28;20026;-83
2023/07/11 01:23:32;;;;;;;5.20;2.88;;;;;;;20.32;62.23;99112.41;5031657;28;20072;-82
2023/07/11 01:26:02;;;;;;;3.55;2.53;;;;;;;20.41;61.96;99111.38;5031458;28;20022;-80
2023/07/11 01:28:28;;;;;;;3.22;2.63;;;;;;;20.55;62.11;99128.38;5013772;28;20037;-80
2023/07/11 01:30:54;;;;;;;2.60;2.40;;;;;;;20.53;61.87;99116.28;5029851;28;20034;-80
2023/07/11 01:33:19;;;;;;;4.53;2.20;;;;;;;20.40;62.05;99112.47;5029806;28;20573;-80
2023/07/11 01:35:44;;;;;;;4.28;2.80;;;;;;;20.44;61.87;99113.47;5013525;28;20031;-80
2023/07/11 01:38:10;;;;;;;6.32;2.63;;;;;;;20.36;61.97;99095.22;5029378;28;20040;-80
2023/07/11 01:40:35;;;;;;;4.15;2.55;;;;;;;20.36;61.72;99099.81;5013345;28;20041;-80
2023/07/11 01:43:01;;;;;;;3.67;2.92;;;;;;;20.25;62.20;99098.47;5013213;28;20033;-80
2023/07/11 01:45:27;;;;;;;5.45;3.28;;;;;;;19.85;63.46;99105.53;5029772;28;20033;-80
2023/07/11 01:47:52;;;;;;;6.47;2.63;;;;;;;18.97;65.77;99084.97;5029258;28;20036;-80
2023/07/11 01:50:18;;;;;;;5.72;2.90;;;;;;;19.43;64.80;99091.19;5013337;28;20030;-80
2023/07/11 01:52:43;;;;;;;4.47;3.40;;;;;;;19.64;63.99;99099.72;5030848;28;20032;-80
2023/07/11 01:55:10;;;;;;;5.40;2.83;;;;;;;20.07;62.92;99100.97;5029610;28;20116;-80
2023/07/11 01:57:35;;;;;;;5.65;3.00;;;;;;;20.09;62.33;99092.56;5030414;28;20033;-80
2023/07/11 02:00:01;;;;;;;4.30;3.03;;;;;;;20.24;62.40;99108.50;5013207;28;20034;-80
2023/07/11 02:02:26;;;;;;;4.88;3.00;;;;;;;20.06;62.25;99087.72;5013132;28;20037;-80
2023/07/11 02:04:52;;;;;;;4.78;3.10;;;;;;;20.08;62.31;99086.31;5029322;28;20057;-80
2023/07/11 02:07:17;;;;;;;3.20;2.85;;;;;;;19.97;62.66;99101.19;5028975;28;20489;-80
2023/07/11 02:09:43;;;;;;;3.38;3.08;;;;;;;19.60;63.39;99078.94;5029591;28;20393;-81
2023/07/11 02:12:09;;;;;;;5.93;2.80;;;;;;;18.56;67.80;99092.97;5012848;28;20484;-80
2023/07/11 02:14:36;;;;;;;8.40;3.17;;;;;;;18.13;68.64;99098.72;5029506;28;20029;-80
2023/07/11 02:17:02;;;;;;;3.15;2.80;;;;;;;18.59;67.24;99089.66;5030287;28;20507;-80
2023/07/11 02:19:27;;;;;;;3.67;3.03;;;;;;;19.39;64.54;99078.56;5012888;28;20084;-80
2023/07/11 02:21:52;;;;;;;6.63;3.08;;;;;;;19.77;63.58;99089.97;5012713;28;20400;-80
2023/07/11 02:24:18;;;;;;;2.83;2.50;;;;;;;19.90;63.21;99089.97;5029119;28;20032;-80
2023/07/11 02:26:44;;;;;;;3.92;3.10;;;;;;;19.00;65.47;99086.28;5028628;28;20095;-80
2023/07/11 02:29:10;;;;;;;4.88;3.20;;;;;;;18.17;68.32;99078.13;5030580;28;20025;-80
2023/07/11 02:31:36;;;;;;;4.22;3.45;;;;;;;18.37;66.88;99073.19;4996355;28;20056;-80
2023/07/11 02:34:03;;;;;;;3.50;3.03;;;;;;;18.95;65.64;99073.66;5012826;28;20083;-80
2023/07/11 02:36:28;;;;;;;2.70;2.50;;;;;;;18.92;65.14;99084.25;5030455;28;20529;-80
2023/07/11 02:38:54;;;;;;;5.22;2.90;;;;;;;17.76;69.39;99078.66;5029990;28;20140;-80
2023/07/11 02:41:20;;;;;;;3.40;2.60;;;;;;;18.46;67.24;99087.69;5030307;28;20109;-80
2023/07/11 02:43:47;;;;;;;7.75;2.97;;;;;;;19.09;65.11;99068.28;5029015;28;20065;-80
2023/07/11 02:46:14;;;;;;;6.82;2.72;;;;;;;19.45;63.92;99077.34;5029093;28;20028;-80
2023/07/11 02:48:40;;;;;;;5.18;3.42;;;;;;;18.15;68.13;99062.16;5030209;28;20033;-79
2023/07/11 02:51:05;;;;;;;6.82;3.35;;;;;;;17.60;69.74;99076.44;5030189;28;20047;-80
2023/07/11 02:53:31;;;;;;;4.28;2.83;;;;;;;18.70;66.57;99071.34;5030131;28;20048;-80
2023/07/11 02:55:56;;;;;;;6.22;2.70;;;;;;;19.16;65.21;99074.06;5012447;28;20034;-80
2023/07/11 02:58:22;;;;;;;4.80;2.63;;;;;;;19.29;63.94;99063.28;5031392;28;20568;-80
2023/07/11 03:00:49;;;;;;;4.40;2.60;;;;;;;19.43;63.69;99074.13;5032557;28;20072;-80
2023/07/11 03:03:15;;;;;;;3.65;2.60;;;;;;;19.53;63.49;99076.63;5033677;28;20036;-80
2023/07/11 03:05:42;;;;;;;7.65;2.65;;;;;;;19.60;63.14;99071.63;5033902;28;20029;-80
2023/07/11 03:08:08;;;;;;;5.55;2.45;;;;;;;19.51;63.17;99064.50;5032100;28;20488;-80
2023/07/11 03:10:33;;;;;;;2.97;2.70;;;;;;;19.58;63.13;99070.31;5032487;28;20088;-80
2023/07/11 03:12:58;;;;;;;6.57;2.60;;;;;;;19.44;63.28;99056.78;5033961;28;20112;-80
2023/07/11 03:15:24;;;;;;;6.15;2.80;;;;;;;19.37;63.60;99064.53;4999628;28;20057;-80
2023/07/11 03:17:49;;;;;;;6.88;2.60;;;;;;;19.45;63.18;99058.41;5032234;28;20563;-80
2023/07/11 03:20:14;;;;;;;3.45;2.72;;;;;;;19.53;63.31;99065.81;5032480;28;20041;-80
2023/07/11 03:22:40;;;;;;;5.63;2.78;;;;;;;19.43;63.40;99057.91;5033324;28;20371;-80
2023/07/11 03:25:05;;;;;;;3.67;2.58;;;;;;;19.38;63.83;99064.22;5029533;28;20130;-80
2023/07/11 03:27:31;;;;;;;6.38;3.10;;;;;;;18.12;68.19;99064.66;5028559;28;20033;-80
2023/07/11 03:29:56;;;;;;;5.13;3.10;;;;;;;18.10;67.64;99059.56;5029297;28;20043;-80
2023/07/11 03:32:21;;;;;;;8.05;3.58;;;;;;;18.01;67.54;99055.91;5027816;28;20065;-80
2023/07/11 03:34:47;;;;;;;5.95;3.35;;;;;;;17.75;68.75;99063.56;5031328;28;20072;-80
2023/07/11 03:37:12;;;;;;;6.00;3.47;;;;;;;17.48;70.11;99071.41;5033508;28;20034;-80
2023/07/11 03:39:37;;;;;;;6.90;3.83;;;;;;;17.07;72.00;99060.25;5033208;28;20044;-80
2023/07/11 03:42:03;;;;;;;5.32;3.13;;;;;;;17.30;70.83;99047.84;5032447;28;20037;-80
2023/07/11 03:44:28;;;;;;;6.47;3.90;;;;;;;17.04;72.07;99058.13;5032230;28;20033;-79
2023/07/11 03:46:54;;;;;;;11.40;3.85;;;;;;;16.61;74.23;99050.16;5033184;28;20037;-79
2023/07/11 03:49:19;;;;;;;5.15;3.63;;;;;;;16.49;74.14;99059.38;5015672;28;20034;-79
2023/07/11 03:51:44;;;;;;;8.77;4.15;;;;;;;16.54;73.94;99061.25;5032050;28;20079;-79
2023/07/11 03:54:10;;;;;;;10.32;3.95;;;;;;;16.46;75.00;99059.16;5015668;28;20079;-80
2023/07/11 03:56:35;;;;;;;6.95;2.92;;;;;;;16.45;73.69;99036.78;5015255;28;20037;-80
2023/07/11 03:59:00;;;;;;;7.60;3.72;;;;;;;16.44;74.72;99047.84;5015284;28;20140;-80
2023/07/11 04:01:26;;;;;;;3.10;2.80;;;;;;;16.79;72.70;99047.59;5015490;28;20113;-79
2023/07/11 04:03:52;;;;;;;5.30;3.40;;;;;;;17.18;71.13;99040.19;5015556;28;20524;-79
2023/07/11 04:06:17;;;;;;;5.38;3.58;;;;;;;17.11;71.16;99031.63;5031866;28;20037;-80
2023/07/11 04:08:43;;;;;;;5.28;3.00;;;;;;;18.15;68.35;99037.06;5047106;28;20481;-80
2023/07/11 04:11:09;;;;;;;8.77;3.88;;;;;;;18.55;66.28;99031.06;5015403;28;20030;-79
2023/07/11 04:13:34;;;;;;;5.72;3.03;;;;;;;18.25;68.01;99043.13;5015355;28;20537;-80
2023/07/11 04:15:59;;;;;;;6.97;4.10;;;;;;;17.58;72.21;99030.03;5031757;28;20124;-80
2023/07/11 04:18:25;;;;;;;6.47;4.03;;;;;;;17.42;71.95;99025.88;5031603;28;20087;-79
2023/07/11 04:20:52;;;;;;;7.35;3.80;;;;;;;18.10;69.43;99029.03;5031451;28;20491;-80
2023/07/11 04:23:18;;;;;;;5.15;2.88;;;;;;;18.16;68.79;99022.47;5031394;28;20171;-80
2023/07/11 04:25:43;;;;;;;4.50;2.72;;;;;;;18.76;66.82;99048.56;5014883;28;20116;-80
2023/07/11 04:28:08;;;;;;;9.63;2.88;;;;;;;18.91;66.02;99025.84;5032523;28;20026;-80
2023/07/11 04:30:35;;;;;;;8.23;4.00;;;;;;;18.58;69.99;99044.00;5032740;28;20033;-80
2023/07/11 04:33:03;;;;;;;4.82;3.50;;;;;;;18.38;71.32;99036.16;5031282;28;20033;-80
2023/07/11 04:35:30;;;;;;;6.15;3.78;;;;;;;18.03;74.03;99021.31;5030972;28;20028;-80
2023/07/11 04:37:55;;;;;;;8.80;4.35;;;;;;;17.98;75.36;99034.88;5030858;28;20354;-80
2023/07/11 04:40:23;;;;;;;11.48;4.50;;;;;;;17.80;75.95;99022.97;5031667;28;20033;-80
2023/07/11 04:42:48;;;;;;;6.57;4.32;;;;;;;17.86;76.07;99024.53;5031163;28;20041;-80
2023/07/11 04:45:13;;;;;;;11.10;4.75;;;;;;;17.94;76.86;99021.16;5031009;28;20075;-80
2023/07/11 04:47:39;;;;;;;10.30;3.92;;;;;;;17.95;76.70;99027.38;5030747;28;20029;-79
2023/07/11 04:50:05;;;;;;;7.93;4.88;;;;;;;18.00;76.46;99027.28;5030884;28;20108;-79
2023/07/11 04:52:30;;;;;;;6.60;4.22;;;;;;;18.01;76.27;99009.19;5031788;28;20029;-80
2023/07/11 04:54:55;;;;;;;12.57;4.55;;;;;;;18.19;75.38;99021.88;5014220;28;20481;-83
2023/07/11 04:57:21;;;;;;;9.27;4.43;;;;;;;18.27;75.31;99032.00;5030470;28;20495;-83
2023/07/11 04:59:47;;;;;;;5.90;4.35;;;;;;;18.30;75.32;99009.81;5030902;28;20455;-83
2023/07/11 05:02:13;;;;;;;13.65;5.30;;;;;;;18.39;74.77;99010.75;5030909;28;20044;-83
2023/07/11 05:04:39;;;;;;;8.75;4.53;;;;;;;18.53;74.92;99022.44;5031989;28;20029;-82
2023/07/11 05:07:04;;;;;;;10.90;4.47;;;;;;;18.37;73.40;99015.66;5031680;28;20036;-83
2023/07/11 05:09:30;;;;;;;13.10;5.13;;;;;;;18.41;73.67;99017.44;4997846;28;20501;-83
2023/07/11 05:11:56;;;;;;;8.73;4.72;;;;;;;18.59;74.09;99032.06;5030749;28;20377;-83
2023/07/11 05:14:23;;;;;;;9.32;5.28;;;;;;;18.49;74.44;99021.44;5030318;28;20049;-81
2023/07/11 05:16:48;;;;;;;9.50;4.30;;;;;;;18.29;74.70;99006.31;5029996;28;20060;-82
2023/07/11 05:19:14;;;;;;;7.65;4.18;;;;;;;18.45;74.39;99002.31;5014042;28;20428;-82
2023/07/11 05:21:39;;;;;;;10.93;4.75;;;;;;;18.75;74.93;99016.38;5030236;28;20033;-82
2023/07/11 05:24:05;;;;;;;9.73;4.70;;;;;;;18.84;73.78;98998.38;5031663;28;20427;-82
2023/07/11 05:26:30;;;;;;;8.85;4.13;;;;;;;18.98;74.28;99012.75;5013595;28;20029;-82
2023/07/11 05:28:56;;;;;;;6.28;3.97;;;;;;;19.00;72.23;99002.41;5030165;28;20040;-82
2023/07/11 05:31:22;;;;;;;7.72;3.97;;;;;;;19.80;69.52;99002.69;5030855;28;20036;-82
2023/07/11 05:33:48;;;;;;;5.10;3.53;;;;;;;19.41;71.75;99014.09;5032305;28;20040;-82
2023/07/11 05:36:32;;;;;;;4.82;3.65;;;;;;;20.41;65.67;99004.81;5032473;28;20100;-83
2023/07/11 05:39:13;;;;;;;9.30;3.92;;;;;;;20.11;70.67;99011.75;5017132;28;20064;-83
2023/07/11 05:41:44;;;;;;;9.40;4.45;;;;;;;19.33;73.66;98999.31;5032073;28;20488;-82
2023/07/11 05:44:11;;;;;;;8.32;4.32;;;;;;;19.75;71.86;98991.94;5030966;28;20026;-83
2023/07/11 05:46:37;;;;;;;7.38;4.15;;;;;;;19.71;70.69;98974.72;5031580;28;20105;-82
2023/07/11 05:49:04;;;;;;;6.13;3.70;;;;;;;20.29;67.82;98983.66;5031260;28;20424;-82
2023/07/11 05:51:30;;;;;;;7.07;3.55;;;;;;;20.33;67.61;98995.53;5030092;28;20029;-82
2023/07/11 05:53:56;;;;;;;5.25;4.72;;;;;;;19.27;72.64;98938.25;5030191;28;20035;-82
2023/07/11 05:56:22;;;;;;;9.90;4.57;;;;;;;19.58;71.15;98956.59;5014125;28;20036;-82
2023/07/11 05:58:50;;;;;;;9.50;3.63;;;;;;;20.78;65.06;98977.28;5013592;28;20532;-83
2023/07/11 06:01:18;;;;;;;8.95;3.80;;;;;;;21.07;65.63;98979.53;5030694;28;20496;-82
2023/07/11 06:03:45;;;;;;;4.93;2.85;;;;;;;21.26;63.42;98961.88;5031306;28;20079;-82
2023/07/11 06:06:13;;;;;;;8.38;3.92;;;;;;;21.49;62.61;98968.00;5031409;28;20025;-83
2023/07/11 06:08:38;;;;;;;11.10;4.30;;;;;;;21.39;64.49;98965.56;5029911;28;20035;-83
2023/07/11 06:11:05;;;;;;;5.60;3.28;;;;;;;20.73;67.58;98956.50;5029978;28;20030;-83
2023/07/11 06:13:32;;;;;;;6.95;4.10;;;;;;;20.59;70.23;98961.25;5030042;28;20033;-82
2023/07/11 06:15:59;;;;;;;10.38;3.53;;;;;;;20.73;68.91;98956.50;5029975;28;20029;-82
2023/07/11 06:18:25;;;;;;;5.00;3.40;;;;;;;21.03;67.51;98960.34;5031124;28;20066;-82
2023/07/11 06:20:51;;;;;;;8.68;4.93;;;;;;;20.42;70.65;98950.25;5029899;28;20053;-82
2023/07/11 06:23:16;;;;;;;4.70;3.20;;;;;;;21.06;65.00;98934.47;5013596;28;20033;-82
2023/07/11 06:25:41;;;;;;;7.03;4.63;;;;;;;20.58;71.78;98942.53;4997276;28;20766;-82
2023/07/11 06:28:07;;;;;;;8.60;3.97;;;;;;;20.06;73.51;98919.72;5013478;28;20227;-82
2023/07/11 06:30:32;;;;;;;3.47;3.17;;;;;;;20.92;66.34;98934.59;5030094;28;20489;-82
2023/07/11 06:32:58;;;;;;;7.05;4.22;;;;;;;20.40;70.68;98938.94;5032469;28;20033;-83
2023/07/11 06:35:24;;;;;;;4.93;3.78;;;;;;;20.60;68.08;98914.00;5034035;28;20029;-82
2023/07/11 06:37:49;;;;;;;7.22;4.65;;;;;;;20.75;71.27;98920.94;5033882;28;20116;-82
2023/07/11 06:40:18;;;;;;;5.70;3.90;;;;;;;21.11;66.40;98928.91;5017043;28;20473;-83
2023/07/11 06:42:43;;;;;;;8.23;4.85;;;;;;;21.07;69.79;98927.94;5033908;28;20033;-82
2023/07/11 06:45:11;;;;;;;8.82;4.35;;;;;;;20.67;69.92;98924.41;5033173;28;20029;-83
2023/07/11 06:47:37;;;;;;;9.98;4.63;;;;;;;20.79;70.67;98922.69;5033419;28;20033;-82
2023/07/11 06:50:02;;;;;;;6.90;4.57;;;;;;;20.75;70.41;98929.09;5033966;28;20357;-82
2023/07/11 06:52:29;;;;;;;7.25;4.20;;;;;;;20.77;70.32;98919.50;5033686;28;20029;-82
2023/07/11 06:54:55;;;;;;;9.35;3.83;;;;;;;21.19;66.59;98909.94;5017248;28;20021;-83
2023/07/11 06:57:20;;;;;;;5.80;3.40;;;;;;;21.93;64.49;98921.53;5049908;28;20025;-83
2023/07/11 06:59:47;;;;;;;10.10;4.72;;;;;;;21.51;68.36;98919.59;5033649;28;20033;-83
2023/07/11 07:02:13;;;;;;;3.72;3.35;;;;;;;21.96;64.20;98918.19;5001137;28;20575;-82
2023/07/11 07:04:38;;;;;;;4.05;3.42;;;;;;;22.14;63.33;98900.75;5017055;28;20029;-82
2023/07/11 07:07:04;;;;;;;4.63;3.78;;;;;;;21.98;63.96;98893.38;5033414;28;20080;-82
2023/07/11 07:09:29;;;;;;;6.30;3.75;;;;;;;22.46;62.98;98901.28;5017008;28;20492;-82
2023/07/11 07:11:55;;;;;;;5.47;4.07;;;;;;;22.61;62.19;98898.88;5033414;28;20056;-83
2023/07/11 07:14:22;;;;;;;9.43;3.55;;;;;;;22.65;63.85;98897.09;5016514;28;20025;-83
2023/07/11 07:16:47;;;;;;;7.45;3.67;;;;;;;22.63;62.16;98877.56;5049611;28;20191;-83
2023/07/11 07:19:12;;;;;;;8.65;3.72;;;;;;;22.58;63.52;98887.81;5033154;28;20029;-83
2023/07/11 07:21:38;;;;;;;6.93;4.32;;;;;;;22.54;66.80;98884.16;5033109;28;20040;-83
2023/07/11 07:24:04;;;;;;;5.38;3.95;;;;;;;22.76;62.55;98886.66;5032989;28;20048;-83
2023/07/11 07:26:29;;;;;;;7.72;3.95;;;;;;;22.35;64.45;98868.19;5016394;28;20033;-82
2023/07/11 07:28:55;;;;;;;5.03;4.28;;;;;;;22.43;65.92;98889.16;5034124;28;20059;-82
2023/07/11 07:31:20;;;;;;;8.40;4.85;;;;;;;22.09;67.38;98862.84;5032901;28;20037;-82
2023/07/11 07:33:45;;;;;;;5.40;4.60;;;;;;;22.08;68.53;98860.44;5016213;28;20021;-82
2023/07/11 07:36:12;;;;;;;4.28;3.35;;;;;;;22.71;63.56;98871.31;5032759;28;20033;-83
2023/07/11 07:38:39;;;;;;;6.15;4.53;;;;;;;22.68;66.38;98869.25;5033716;28;20033;-82
2023/07/11 07:41:08;;;;;;;10.07;4.93;;;;;;;22.47;67.68;98867.53;5032793;28;20034;-82
2023/07/11 07:43:34;;;;;;;6.65;5.03;;;;;;;22.61;67.33;98851.81;5032086;28;20419;-82
2023/07/11 07:46:01;;;;;;;6.22;4.35;;;;;;;22.46;67.55;98860.47;5033566;28;20033;-82
2023/07/11 07:48:27;;;;;;;4.72;3.53;;;;;;;23.06;65.51;98866.50;5033549;28;20030;-82
2023/07/11 07:51:02;;;;;;;6.53;4.47;;;;;;;23.10;64.52;98864.69;5015955;28;20026;-83
2023/07/11 07:53:27;;;;;;;4.55;3.67;;;;;;;23.07;64.39;98865.34;5034175;28;20017;-83
2023/07/11 07:55:52;;;;;;;6.85;4.88;;;;;;;22.88;67.90;98856.81;5032709;28;20150;-83
2023/07/11 07:58:18;;;;;;;13.20;5.10;;;;;;;23.13;65.25;98856.66;5032181;28;20034;-82
2023/07/11 08:00:43;;;;;;;7.32;4.13;;;;;;;23.62;62.30;98848.81;5032219;28;20033;-82
2023/07/11 08:03:09;;;;;;;5.90;4.07;;;;;;;23.69;62.04;98841.69;5033490;28;20033;-83
2023/07/11 08:05:36;;;;;;;8.23;4.63;;;;;;;23.66;64.65;98834.16;5033468;28;20025;-83
2023/07/11 08:08:01;;;;;;;5.32;4.40;;;;;;;23.79;66.03;98841.28;5032136;28;20079;-83
2023/07/11 08:10:27;;;;;;;7.53;4.90;;;;;;;23.54;65.71;98819.69;5032085;28;20037;-83
2023/07/11 08:12:52;;;;;;;6.88;5.43;;;;;;;23.72;66.85;98830.09;4999148;28;20059;-83
2023/07/11 08:15:18;;;;;;;8.48;5.40;;;;;;;23.74;63.91;98810.72;5033517;28;20432;-83
2023/07/11 08:17:45;;;;;;;6.47;4.97;;;;;;;23.86;62.39;98816.19;5031462;28;20087;-82
2023/07/11 08:20:12;;;;;;;9.27;5.90;;;;;;;23.79;61.69;98815.94;5015474;28;20033;-82
2023/07/11 08:22:37;;;;;;;6.40;4.50;;;;;;;24.12;61.61;98813.22;5031768;28;20033;-82
2023/07/11 08:25:03;;;;;;;6.63;4.75;;;;;;;24.39;60.55;98790.75;5031546;28;20036;-83
2023/07/11 08:27:28;;;;;;;6.82;5.72;;;;;;;24.37;60.93;98798.50;5031777;28;20037;-82
2023/07/11 08:29:53;;;;;;;4.65;4.05;;;;;;;24.71;59.83;98805.41;5031621;28;20385;-83
2023/07/11 08:32:19;;;;;;;5.00;4.50;;;;;;;24.60;60.02;98788.72;5031799;28;20094;-82
2023/07/11 08:34:44;;;;;;;9.85;6.00;;;;;;;24.40;62.79;98782.22;5015179;28;20029;-82
2023/07/11 08:37:10;;;;;;;6.43;5.18;;;;;;;24.93;58.97;98788.59;5014787;28;20509;-83
2023/07/11 08:39:37;;;;;;;8.23;6.13;;;;;;;24.70;61.98;98780.06;5032105;28;20500;-82
2023/07/11 08:42:31;;;;;;;5.80;4.85;;;;;;;24.81;59.45;98786.69;5031314;28;20021;-83
2023/07/11 08:45:09;;;;;;;6.72;5.25;;;;;;;25.06;58.66;98785.50;5032371;28;20037;-83
2023/07/11 08:47:39;;;;;;;4.97;4.53;;;;;;;25.01;59.21;98777.53;5032556;28;20045;-83
2023/07/11 08:50:09;;;;;;;9.30;6.07;;;;;;;24.88;61.60;98788.84;5031360;28;20021;-82
2023/07/11 08:52:35;;;;;;;5.85;5.28;;;;;;;24.80;59.77;98779.63;5032803;28;20495;-83
2023/07/11 08:55:25;;;;;;;5.18;4.68;;;;;;;25.17;60.19;98775.69;5032261;28;20021;-82
2023/07/11 08:58:14;;;;;;;10.07;5.82;;;;;;;25.19;58.79;98767.94;5031257;28;20040;-82
2023/07/11 09:00:44;;;;;;;6.75;5.55;;;;;;;25.18;59.39;98762.84;5014826;28;20400;-82
2023/07/11 09:03:16;;;;;;;7.03;5.22;;;;;;;25.34;57.95;98741.81;5032368;28;20037;-83
2023/07/11 09:06:04;;;;;;;6.25;5.65;;;;;;;25.36;58.65;98757.88;5031147;28;20029;-82
2023/07/11 09:08:31;;;;;;;6.05;5.43;;;;;;;25.62;58.45;98761.75;5032234;28;20025;-83
2023/07/11 09:11:30;;;;;;;8.38;5.72;;;;;;;25.65;58.85;98761.06;5031210;28;20053;-83
2023/07/11 09:14:10;;;;;;;17.40;6.15;;;;;;;25.57;59.39;98755.75;5032231;28;20017;-83
2023/07/11 09:16:46;;;;;;;7.25;5.75;;;;;;;25.77;58.83;98750.09;5030923;28;20111;-83
2023/07/11 09:19:14;;;;;;;7.55;5.20;;;;;;;26.02;57.06;98740.56;5030708;28;20037;-82
2023/07/11 09:21:51;;;;;;;9.02;6.43;;;;;;;25.84;58.52;98742.03;5031150;28;20040;-83
2023/07/11 09:25:07;;;;;;;7.03;6.30;;;;;;;25.39;58.86;98735.31;5032194;28;20029;-83
2023/07/11 09:27:36;;;;;;;7.75;6.30;;;;;;;25.57;58.57;98733.88;5028480;28;20040;-82
2023/07/11 09:30:16;;;;;;;6.90;6.25;;;;;;;25.51;58.94;98721.63;5032749;28;20028;-83
2023/07/11 09:32:42;;;;;;;9.80;6.70;;;;;;;26.02;57.56;98726.09;5032799;28;20033;-83
2023/07/11 09:35:31;;;;;;;8.80;5.57;;;;;;;26.29;56.80;98735.38;5032182;28;20030;-82
2023/07/11 09:38:13;;;;;;;7.75;6.75;;;;;;;26.16;57.89;98721.03;5032453;28;20064;-83
2023/07/11 09:40:54;;;;;;;6.65;5.95;;;;;;;26.00;57.76;98723.72;5031787;28;20034;-81
2023/07/11 09:43:20;;;;;;;6.53;5.93;;;;;;;26.07;57.99;98711.34;5032284;28;20029;-83
2023/07/11 09:45:46;;;;;;;8.68;6.28;;;;;;;26.52;55.99;98717.16;4997898;28;20125;-83
2023/07/11 09:48:17;;;;;;;8.20;7.30;;;;;;;26.37;57.09;98707.03;5014335;28;20025;-83
2023/07/11 09:50:54;;;;;;;6.72;6.03;;;;;;;26.47;56.94;98720.19;5015119;28;20113;-83
2023/07/11 09:53:23;;;;;;;9.75;6.50;;;;;;;26.44;55.97;98699.78;5030700;28;20695;-83
2023/07/11 09:55:57;;;;;;;6.53;5.78;;;;;;;26.96;55.67;98704.88;5031039;28;20021;-83
2023/07/11 09:58:22;;;;;;;6.25;5.53;;;;;;;26.87;55.65;98695.28;5030583;28;20116;-83
2023/07/11 10:00:52;;;;;;;7.95;6.65;;;;;;;26.88;55.42;98688.66;5030562;28;20412;-83
2023/07/11 10:03:24;;;;;;;7.82;6.78;;;;;;;26.94;55.81;98704.44;5032256;28;20025;-83
2023/07/11 10:05:52;;;;;;;9.45;6.95;;;;;;;27.16;55.18;98695.53;5031582;28;20508;-83
2023/07/11 10:08:17;;;;;;;5.95;5.25;;;;;;;27.49;54.63;98700.50;5001875;28;20095;-83
2023/07/11 10:10:51;;;;;;;9.32;6.78;;;;;;;27.24;55.57;98693.69;5035883;28;20029;-83
2023/07/11 10:13:17;;;;;;;7.40;6.65;;;;;;;27.60;55.55;98685.03;5034719;28;20030;-83
2023/07/11 10:15:46;;;;;;;7.70;6.18;;;;;;;27.79;54.02;98670.47;5018108;28;20374;-83
2023/07/11 10:18:27;;;;;;;11.07;6.07;;;;;;;27.74;54.51;98668.81;5033945;28;20034;-83
2023/07/11 10:20:59;;;;;;;14.00;6.70;;;;;;;27.59;54.53;98666.97;5019459;28;20033;-83
2023/07/11 10:23:25;;;;;;;7.20;6.18;;;;;;;27.80;54.05;98656.41;5035831;28;20018;-83
2023/07/11 10:26:06;;;;;;;10.10;6.13;;;;;;;27.94;53.88;98664.84;5035200;28;20149;-83
2023/07/11 10:28:33;;;;;;;7.45;6.72;;;;;;;28.19;53.33;98668.03;5035619;28;20085;-83
2023/07/11 10:31:10;;;;;;;8.70;6.15;;;;;;;27.86;54.09;98654.13;5034241;28;20037;-83
2023/07/11 10:33:47;;;;;;;8.63;6.35;;;;;;;27.04;53.91;98645.56;5035681;28;20075;-83
2023/07/11 10:36:21;;;;;;;8.20;6.35;;;;;;;26.80;53.87;98640.38;5034323;28;20021;-82
2023/07/11 10:38:56;;;;;;;9.25;6.93;;;;;;;27.14;54.44;98636.75;5034087;28;20029;-83
2023/07/11 10:41:33;;;;;;;9.18;7.63;;;;;;;27.38;54.27;98644.66;5035580;28;20061;-83
2023/07/11 10:44:02;;;;;;;7.43;6.28;;;;;;;27.71;54.56;98633.09;5017991;28;20080;-83
2023/07/11 10:46:41;;;;;;;8.02;6.70;;;;;;;28.06;53.64;98637.25;5035781;28;20411;-83
2023/07/11 10:49:15;;;;;;;11.77;6.55;;;;;;;28.29;53.00;98620.72;5035047;28;20026;-83
2023/07/11 10:51:55;;;;;;;6.63;6.00;;;;;;;28.47;52.01;98623.72;5017598;28;20030;-83
2023/07/11 10:54:47;;;;;;;8.60;6.53;;;;;;;28.51;51.31;98630.84;5035275;28;20025;-83
2023/07/11 10:57:38;;;;;;;9.15;7.13;;;;;;;28.60;51.59;98620.41;5035176;28;20115;-83
2023/07/11 11:00:08;;;;;;;7.53;6.72;;;;;;;28.85;51.11;98617.97;5033860;28;20025;-83
2023/07/11 11:02:59;;;;;;;7.38;6.60;;;;;;;28.77;50.37;98603.34;5035123;28;20033;-83
2023/07/11 11:05:37;;;;;;;7.50;6.22;;;;;;;28.94;51.56;98616.50;5035278;28;20022;-83
2023/07/11 11:08:20;;;;;;;8.98;6.43;;;;;;;29.04;51.58;98587.56;5033183;28;20022;-83
2023/07/11 11:11:16;;;;;;;7.90;7.10;;;;;;;29.41;49.38;98604.06;5033102;28;20041;-83
2023/07/11 11:14:00;;;;;;;8.55;6.68;;;;;;;29.50;48.17;98604.56;5034387;28;20101;-83
2023/07/11 11:16:32;;;;;;;8.93;7.35;;;;;;;29.70;48.53;98596.88;5033106;28;20033;-83
2023/07/11 11:19:07;;;;;;;11.40;7.40;;;;;;;29.85;47.77;98601.34;5032259;28;20394;-83
2023/07/11 11:22:00;;;;;;;9.70;7.07;;;;;;;29.96;47.54;98591.22;5033013;28;20040;-83
2023/07/11 11:24:33;;;;;;;16.45;9.77;;;;;;;30.19;47.85;98583.47;5034168;28;20116;-83
2023/07/11 11:27:17;;;;;;;9.45;7.57;;;;;;;30.20;46.48;98593.34;5032732;28;20100;-83
2023/07/11 11:29:55;;;;;;;10.63;8.98;;;;;;;30.24;45.59;98585.88;5032725;28;20420;-83
2023/07/11 11:32:42;;;;;;;10.57;7.82;;;;;;;30.11;46.01;98568.09;5033786;28;20021;-84
2023/07/11 11:35:24;;;;;;;12.45;9.18;;;;;;;30.43;45.29;98571.06;5032900;28;20028;-83
2023/07/11 11:37:57;;;;;;;11.45;8.73;;;;;;;30.56;45.19;98575.84;5033590;28;20076;-83